createdAt,value
2019-05-25T00:00:09.660Z,14.54
2019-05-25T00:01:09.607Z,14.60
2019-05-25T00:02:09.584Z,14.62
2019-05-25T00:03:09.551Z,14.63
2019-05-25T00:04:09.522Z,14.66
2019-05-25T00:05:09.526Z,14.72
2019-05-25T00:06:09.474Z,14.82
2019-05-25T00:07:09.443Z,15.00
2019-05-25T00:08:09.473Z,14.96
2019-05-25T00:09:09.386Z,14.96
2019-05-25T00:10:10.151Z,14.97
2019-05-25T00:11:09.338Z,14.97
2019-05-25T00:12:09.309Z,15.06
2019-05-25T00:13:09.286Z,14.96
2019-05-25T00:14:09.251Z,14.92
2019-05-25T00:15:09.241Z,14.96
2019-05-25T00:16:09.191Z,14.92
2019-05-25T00:17:09.225Z,14.91
2019-05-25T00:18:09.140Z,14.89
2019-05-25T00:19:09.124Z,14.81
2019-05-25T00:20:09.106Z,14.84
2019-05-25T00:21:09.076Z,14.78
2019-05-25T00:22:09.024Z,14.77
2019-05-25T00:23:08.997Z,14.66
2019-05-25T00:24:12.647Z,14.60
2019-05-25T00:25:08.967Z,14.48
2019-05-25T00:26:08.910Z,14.58
2019-05-25T00:27:08.889Z,14.50
2019-05-25T00:28:08.861Z,14.51
2019-05-25T00:29:08.830Z,14.48
2019-05-25T00:30:08.829Z,14.47
2019-05-25T00:31:08.775Z,14.43
2019-05-25T00:32:08.750Z,14.47
2019-05-25T00:33:08.722Z,14.40
2019-05-25T00:34:08.692Z,14.36
2019-05-25T00:35:08.687Z,14.29
2019-05-25T00:36:08.636Z,14.35
2019-05-25T00:37:08.606Z,14.33
2019-05-25T00:38:08.585Z,14.32
2019-05-25T00:39:08.552Z,14.22
2019-05-25T00:40:08.549Z,14.36
2019-05-25T00:41:08.494Z,14.28
2019-05-25T00:42:08.465Z,14.25
2019-05-25T00:43:08.458Z,14.28
2019-05-25T00:44:08.413Z,14.17
2019-05-25T00:45:08.454Z,14.23
2019-05-25T00:46:08.360Z,14.23
2019-05-25T00:47:08.326Z,14.18
2019-05-25T00:48:08.301Z,14.12
2019-05-25T00:49:08.275Z,14.08
2019-05-25T00:50:08.270Z,14.05
2019-05-25T00:51:08.214Z,14.05
2019-05-25T00:52:08.211Z,14.00
2019-05-25T00:53:08.245Z,13.92
2019-05-25T00:54:08.128Z,13.95
2019-05-25T00:55:08.128Z,13.97
2019-05-25T00:56:08.080Z,13.92
2019-05-25T00:57:08.049Z,13.92
2019-05-25T00:58:08.029Z,13.89
2019-05-25T00:59:07.993Z,13.86
2019-05-25T01:00:07.995Z,13.77
2019-05-25T01:01:07.946Z,13.74
2019-05-25T01:02:07.914Z,13.78
2019-05-25T01:03:07.874Z,13.71
2019-05-25T01:04:07.852Z,13.74
2019-05-25T01:05:07.819Z,13.70
2019-05-25T01:06:07.817Z,13.70
2019-05-25T01:07:07.790Z,13.63
2019-05-25T01:08:07.742Z,13.63
2019-05-25T01:09:07.711Z,13.59
2019-05-25T01:10:07.680Z,13.56
2019-05-25T01:11:07.680Z,13.52
2019-05-25T01:12:08.156Z,13.49
2019-05-25T01:13:07.598Z,13.49
2019-05-25T01:14:07.567Z,13.46
2019-05-25T01:15:07.539Z,13.41
2019-05-25T01:16:07.535Z,13.31
2019-05-25T01:17:07.491Z,13.27
2019-05-25T01:18:07.453Z,13.30
2019-05-25T01:19:07.423Z,13.30
2019-05-25T01:20:07.396Z,13.25
2019-05-25T01:21:07.395Z,13.25
2019-05-25T01:22:08.161Z,13.22
2019-05-25T01:23:07.311Z,13.13
2019-05-25T01:24:07.279Z,13.11
2019-05-25T01:25:07.255Z,13.03
2019-05-25T01:26:07.252Z,13.03
2019-05-25T01:27:07.197Z,13.05
2019-05-25T01:28:07.167Z,13.03
2019-05-25T01:29:07.137Z,12.97
2019-05-25T01:30:07.110Z,12.94
2019-05-25T01:31:07.113Z,12.90
2019-05-25T01:32:07.108Z,12.93
2019-05-25T01:33:07.029Z,12.82
2019-05-25T01:34:07.000Z,12.78
2019-05-25T01:35:06.971Z,12.79
2019-05-25T01:36:06.957Z,12.70
2019-05-25T01:37:06.908Z,12.68
2019-05-25T01:38:06.880Z,12.72
2019-05-25T01:39:06.857Z,12.68
2019-05-25T01:40:06.828Z,12.72
2019-05-25T01:41:06.845Z,12.64
2019-05-25T01:42:07.674Z,12.58
2019-05-25T01:43:06.733Z,12.57
2019-05-25T01:44:06.706Z,12.54
2019-05-25T01:45:07.667Z,12.49
2019-05-25T01:46:06.675Z,12.46
2019-05-25T01:47:06.622Z,12.46
2019-05-25T01:48:06.590Z,12.47
2019-05-25T01:49:06.557Z,12.31
2019-05-25T01:50:06.530Z,12.39
2019-05-25T01:51:06.524Z,12.25
2019-05-25T01:52:06.475Z,12.27
2019-05-25T01:53:06.446Z,12.28
2019-05-25T01:54:06.420Z,12.24
2019-05-25T01:55:06.386Z,12.28
2019-05-25T01:56:06.378Z,12.22
2019-05-25T01:57:06.327Z,12.28
2019-05-25T01:58:06.300Z,12.20
2019-05-25T01:59:06.273Z,12.21
2019-05-25T02:00:06.238Z,12.18
2019-05-25T02:01:06.240Z,12.20
2019-05-25T02:02:06.180Z,12.24
2019-05-25T02:03:06.152Z,12.09
2019-05-25T02:04:06.126Z,12.12
2019-05-25T02:05:06.094Z,12.00
2019-05-25T02:06:06.084Z,12.02
2019-05-25T02:07:06.030Z,11.94
2019-05-25T02:08:06.006Z,11.91
2019-05-25T02:09:05.991Z,11.87
2019-05-25T02:10:05.945Z,11.91
2019-05-25T02:11:05.944Z,11.86
2019-05-25T02:12:05.887Z,11.86
2019-05-25T02:13:05.858Z,11.81
2019-05-25T02:14:05.831Z,11.80
2019-05-25T02:15:05.796Z,11.86
2019-05-25T02:16:05.798Z,11.80
2019-05-25T02:17:05.740Z,11.86
2019-05-25T02:18:05.711Z,11.78
2019-05-25T02:19:05.679Z,11.80
2019-05-25T02:20:05.657Z,11.77
2019-05-25T02:21:05.625Z,11.78
2019-05-25T02:22:05.615Z,11.72
2019-05-25T02:23:05.567Z,11.72
2019-05-25T02:24:05.536Z,11.59
2019-05-25T02:25:16.948Z,11.55
2019-05-25T02:26:05.479Z,11.65
2019-05-25T02:27:05.467Z,11.51
2019-05-25T02:28:05.423Z,11.60
2019-05-25T02:29:05.386Z,11.45
2019-05-25T02:30:05.375Z,11.48
2019-05-25T02:31:05.339Z,11.40
2019-05-25T02:32:05.326Z,11.45
2019-05-25T02:33:05.268Z,11.40
2019-05-25T02:34:05.251Z,11.35
2019-05-25T02:35:05.210Z,11.32
2019-05-25T02:36:05.180Z,11.30
2019-05-25T02:37:05.177Z,11.14
2019-05-25T02:38:05.126Z,11.11
2019-05-25T02:39:05.139Z,11.11
2019-05-25T02:40:05.061Z,11.11
2019-05-25T02:41:05.035Z,11.11
2019-05-25T02:42:05.026Z,10.96
2019-05-25T02:43:04.972Z,11.04
2019-05-25T02:44:04.952Z,11.05
2019-05-25T02:45:04.918Z,11.05
2019-05-25T02:46:04.888Z,11.08
2019-05-25T02:47:04.881Z,11.07
2019-05-25T02:48:04.877Z,10.99
2019-05-25T02:49:05.677Z,10.96
2019-05-25T02:50:04.771Z,10.96
2019-05-25T02:51:04.737Z,10.93
2019-05-25T02:52:04.728Z,10.87
2019-05-25T02:53:04.678Z,10.90
2019-05-25T02:54:04.657Z,10.97
2019-05-25T02:55:04.622Z,10.94
2019-05-25T02:56:04.599Z,10.94
2019-05-25T02:57:04.581Z,10.92
2019-05-25T02:58:04.536Z,10.96
2019-05-25T02:59:05.100Z,10.90
2019-05-25T03:00:04.472Z,10.94
2019-05-25T03:01:04.440Z,10.86
2019-05-25T03:02:04.434Z,10.87
2019-05-25T03:03:04.384Z,10.87
2019-05-25T03:04:04.348Z,10.76
2019-05-25T03:05:04.340Z,10.71
2019-05-25T03:06:04.346Z,10.76
2019-05-25T03:07:04.288Z,10.75
2019-05-25T03:08:04.238Z,10.74
2019-05-25T03:09:04.212Z,10.72
2019-05-25T03:10:04.174Z,10.72
2019-05-25T03:11:04.145Z,10.68
2019-05-25T03:12:04.141Z,10.69
2019-05-25T03:13:04.146Z,10.61
2019-05-25T03:14:04.058Z,10.61
2019-05-25T03:15:04.172Z,10.71
2019-05-25T03:16:03.996Z,10.46
2019-05-25T03:17:03.997Z,10.64
2019-05-25T03:18:03.932Z,10.53
2019-05-25T03:19:03.904Z,10.67
2019-05-25T03:20:03.882Z,10.64
2019-05-25T03:21:03.845Z,10.60
2019-05-25T03:22:03.842Z,10.57
2019-05-25T03:23:03.783Z,10.56
2019-05-25T03:24:03.761Z,10.54
2019-05-25T03:25:03.721Z,10.60
2019-05-25T03:26:03.693Z,10.60
2019-05-25T03:27:03.687Z,10.59
2019-05-25T03:28:03.637Z,10.56
2019-05-25T03:29:03.603Z,10.69
2019-05-25T03:30:03.579Z,10.63
2019-05-25T03:31:03.548Z,10.63
2019-05-25T03:32:03.543Z,10.63
2019-05-25T03:33:03.497Z,10.68
2019-05-25T03:34:03.459Z,10.68
2019-05-25T03:35:03.433Z,10.75
2019-05-25T03:36:03.400Z,10.78
2019-05-25T03:37:03.397Z,10.81
2019-05-25T03:38:03.383Z,10.86
2019-05-25T03:39:03.304Z,10.74
2019-05-25T03:40:03.276Z,10.86
2019-05-25T03:41:03.241Z,10.81
2019-05-25T03:42:03.217Z,10.94
2019-05-25T03:43:03.206Z,10.99
2019-05-25T03:44:03.155Z,10.97
2019-05-25T03:45:03.132Z,10.97
2019-05-25T03:46:03.100Z,11.04
2019-05-25T03:47:03.070Z,11.08
2019-05-25T03:48:03.099Z,11.12
2019-05-25T03:49:03.019Z,11.15
2019-05-25T03:50:02.977Z,11.18
2019-05-25T03:51:02.945Z,11.22
2019-05-25T03:52:02.916Z,11.29
2019-05-25T03:53:02.923Z,11.41
2019-05-25T03:54:02.861Z,11.35
2019-05-25T03:55:02.830Z,11.48
2019-05-25T03:56:05.842Z,11.48
2019-05-25T03:57:02.771Z,11.52
2019-05-25T03:58:02.763Z,11.52
2019-05-25T03:59:02.708Z,11.43
2019-05-25T04:00:02.679Z,11.63
2019-05-25T04:01:02.651Z,11.60
2019-05-25T04:02:02.616Z,11.65
2019-05-25T04:03:03.188Z,11.69
2019-05-25T04:04:02.559Z,11.68
2019-05-25T04:05:02.550Z,11.90
2019-05-25T04:06:02.498Z,11.95
2019-05-25T04:07:03.193Z,12.07
2019-05-25T04:08:02.460Z,12.06
2019-05-25T04:09:02.411Z,12.24
2019-05-25T04:10:02.421Z,12.28
2019-05-25T04:11:02.353Z,12.61
2019-05-25T04:12:02.327Z,12.80
2019-05-25T04:13:02.319Z,12.90
2019-05-25T04:14:02.269Z,13.03
2019-05-25T04:15:02.237Z,13.20
2019-05-25T04:16:02.206Z,13.15
2019-05-25T04:17:02.178Z,12.97
2019-05-25T04:18:02.183Z,12.85
2019-05-25T04:19:02.122Z,12.80
2019-05-25T04:20:02.095Z,12.80
2019-05-25T04:21:02.064Z,12.65
2019-05-25T04:22:02.035Z,12.72
2019-05-25T04:23:02.038Z,12.46
2019-05-25T04:24:02.024Z,12.37
2019-05-25T04:25:01.958Z,12.32
2019-05-25T04:26:01.939Z,12.27
2019-05-25T04:27:01.892Z,12.39
2019-05-25T04:28:01.890Z,12.32
2019-05-25T04:29:01.843Z,12.22
2019-05-25T04:30:01.805Z,12.32
2019-05-25T04:31:01.773Z,12.28
2019-05-25T04:32:01.744Z,12.27
2019-05-25T04:33:01.744Z,12.28
2019-05-25T04:34:01.698Z,12.39
2019-05-25T04:35:01.663Z,12.46
2019-05-25T04:36:02.196Z,12.45
2019-05-25T04:37:01.603Z,12.39
2019-05-25T04:38:01.602Z,12.40
2019-05-25T04:39:01.543Z,12.39
2019-05-25T04:40:01.545Z,12.39
2019-05-25T04:41:01.491Z,12.40
2019-05-25T04:42:01.462Z,12.37
2019-05-25T04:43:01.544Z,12.42
2019-05-25T04:44:01.403Z,12.29
2019-05-25T04:45:01.387Z,12.35
2019-05-25T04:46:01.373Z,12.28
2019-05-25T04:47:01.320Z,12.29
2019-05-25T04:48:01.381Z,12.35
2019-05-25T04:49:01.253Z,12.29
2019-05-25T04:50:01.237Z,12.21
2019-05-25T04:51:01.230Z,12.18
2019-05-25T04:52:01.172Z,12.12
2019-05-25T04:53:01.140Z,12.18
2019-05-25T04:54:01.145Z,12.28
2019-05-25T04:55:01.093Z,12.31
2019-05-25T04:56:01.058Z,12.37
2019-05-25T04:57:01.032Z,12.27
2019-05-25T04:58:00.999Z,12.35
2019-05-25T04:59:01.232Z,12.31
2019-05-25T05:00:00.938Z,12.31
2019-05-25T05:01:00.916Z,12.27
2019-05-25T05:02:00.882Z,12.31
2019-05-25T05:03:00.851Z,12.32
2019-05-25T05:04:00.848Z,12.42
2019-05-25T05:05:00.854Z,12.43
2019-05-25T05:06:00.779Z,12.45
2019-05-25T05:07:00.737Z,12.49
2019-05-25T05:08:00.709Z,12.46
2019-05-25T05:09:00.716Z,12.47
2019-05-25T05:10:02.953Z,12.54
2019-05-25T05:11:00.625Z,12.62
2019-05-25T05:12:00.596Z,12.55
2019-05-25T05:13:00.568Z,12.65
2019-05-25T05:14:00.561Z,12.68
2019-05-25T05:15:00.511Z,12.79
2019-05-25T05:16:00.500Z,12.86
2019-05-25T05:17:00.446Z,12.86
2019-05-25T05:18:00.419Z,13.00
2019-05-25T05:19:00.408Z,13.03
2019-05-25T05:20:00.358Z,13.12
2019-05-25T05:21:00.330Z,13.23
2019-05-25T05:22:00.305Z,13.56
2019-05-25T05:23:01.137Z,14.18
2019-05-25T05:24:00.271Z,14.53
2019-05-25T05:25:07.708Z,14.35
2019-05-25T05:26:00.242Z,14.22
2019-05-25T05:27:00.424Z,14.08
2019-05-25T05:28:00.173Z,13.90
2019-05-25T05:29:00.167Z,13.75
2019-05-25T05:30:00.129Z,13.47
2019-05-25T05:31:00.091Z,13.22
2019-05-25T05:32:00.035Z,13.12
2019-05-25T05:33:00.005Z,13.19
2019-05-25T05:34:00.291Z,13.12
2019-05-25T05:35:01.665Z,13.16
2019-05-25T05:36:00.703Z,13.28
2019-05-25T05:36:59.929Z,13.27
2019-05-25T05:38:00.750Z,13.28
2019-05-25T05:38:59.884Z,13.23
2019-05-25T05:39:59.811Z,13.22
2019-05-25T05:41:00.745Z,13.37
2019-05-25T05:42:00.245Z,13.22
2019-05-25T05:42:59.774Z,13.20
2019-05-25T05:44:03.167Z,13.18
2019-05-25T05:44:59.700Z,13.27
2019-05-25T05:46:00.167Z,13.37
2019-05-25T05:46:59.670Z,13.50
2019-05-25T05:47:59.559Z,13.65
2019-05-25T05:48:59.550Z,13.78
2019-05-25T05:49:59.514Z,13.93
2019-05-25T05:50:59.468Z,13.97
2019-05-25T05:51:59.461Z,14.18
2019-05-25T05:52:59.515Z,14.22
2019-05-25T05:53:59.405Z,14.25
2019-05-25T05:54:59.353Z,14.04
2019-05-25T05:55:59.324Z,14.07
2019-05-25T05:57:11.646Z,14.05
2019-05-25T05:57:59.271Z,14.20
2019-05-25T05:58:59.266Z,14.22
2019-05-25T05:59:59.212Z,14.23
2019-05-25T06:00:59.237Z,14.33
2019-05-25T06:01:59.165Z,14.41
2019-05-25T06:03:01.753Z,14.48
2019-05-25T06:03:59.135Z,14.45
2019-05-25T06:04:59.077Z,14.77
2019-05-25T06:05:59.049Z,14.99
2019-05-25T06:06:59.017Z,15.17
2019-05-25T06:07:58.997Z,15.21
2019-05-25T06:08:58.963Z,15.33
2019-05-25T06:09:58.962Z,15.33
2019-05-25T06:10:58.908Z,15.35
2019-05-25T06:11:58.883Z,15.29
2019-05-25T06:13:01.758Z,15.27
2019-05-25T06:13:58.837Z,15.37
2019-05-25T06:14:58.828Z,15.55
2019-05-25T06:15:58.787Z,15.43
2019-05-25T06:16:58.758Z,15.44
2019-05-25T06:17:58.725Z,15.55
2019-05-25T06:18:58.694Z,15.54
2019-05-25T06:19:58.797Z,15.43
2019-05-25T06:20:58.642Z,15.51
2019-05-25T06:21:58.627Z,15.42
2019-05-25T06:22:58.656Z,15.51
2019-05-25T06:23:58.567Z,15.40
2019-05-25T06:24:58.562Z,15.29
2019-05-25T06:25:58.514Z,15.33
2019-05-25T06:26:58.494Z,15.28
2019-05-25T06:27:58.473Z,15.21
2019-05-25T06:28:58.446Z,15.04
2019-05-25T06:29:58.449Z,15.33
2019-05-25T06:30:58.393Z,15.67
2019-05-25T06:31:58.374Z,15.75
2019-05-25T06:32:58.359Z,15.72
2019-05-25T06:33:58.310Z,15.70
2019-05-25T06:34:58.319Z,15.72
2019-05-25T06:35:58.264Z,15.75
2019-05-25T06:36:58.232Z,15.70
2019-05-25T06:37:58.207Z,15.55
2019-05-25T06:38:58.178Z,15.72
2019-05-25T06:39:58.200Z,15.68
2019-05-25T06:40:58.144Z,15.65
2019-05-25T06:41:58.109Z,15.58
2019-05-25T06:42:58.085Z,15.68
2019-05-25T06:43:58.051Z,15.61
2019-05-25T06:44:58.049Z,15.61
2019-05-25T06:45:58.009Z,15.57
2019-05-25T06:46:57.980Z,15.68
2019-05-25T06:47:57.960Z,15.76
2019-05-25T06:48:57.934Z,15.97
2019-05-25T06:49:57.925Z,15.64
2019-05-25T06:50:57.880Z,15.61
2019-05-25T06:51:57.856Z,15.55
2019-05-25T06:52:58.220Z,15.68
2019-05-25T06:53:57.805Z,15.64
2019-05-25T06:54:57.847Z,15.52
2019-05-25T06:55:57.751Z,15.58
2019-05-25T06:56:57.723Z,15.72
2019-05-25T06:57:57.699Z,15.77
2019-05-25T06:58:57.674Z,16.01
2019-05-25T06:59:57.677Z,16.24
2019-05-25T07:00:57.618Z,16.17
2019-05-25T07:01:57.593Z,16.23
2019-05-25T07:02:57.566Z,16.36
2019-05-25T07:03:57.546Z,16.56
2019-05-25T07:04:57.556Z,16.47
2019-05-25T07:05:57.503Z,16.28
2019-05-25T07:06:57.484Z,16.24
2019-05-25T07:07:57.466Z,16.17
2019-05-25T07:08:57.423Z,15.97
2019-05-25T07:09:57.427Z,15.83
2019-05-25T07:10:57.373Z,15.84
2019-05-25T07:11:57.347Z,15.76
2019-05-25T07:12:57.324Z,15.65
2019-05-25T07:13:57.302Z,15.70
2019-05-25T07:14:57.300Z,15.77
2019-05-25T07:15:57.251Z,15.83
2019-05-25T07:16:57.220Z,15.98
2019-05-25T07:17:57.192Z,15.86
2019-05-25T07:18:57.168Z,15.83
2019-05-25T07:19:57.146Z,15.73
2019-05-25T07:20:57.140Z,15.65
2019-05-25T07:21:57.105Z,15.70
2019-05-25T07:23:00.189Z,15.72
2019-05-25T07:23:57.051Z,15.88
2019-05-25T07:24:57.019Z,15.91
2019-05-25T07:25:57.017Z,16.09
2019-05-25T07:26:56.970Z,16.04
2019-05-25T07:28:00.031Z,16.02
2019-05-25T07:28:56.917Z,15.88
2019-05-25T07:29:56.897Z,15.79
2019-05-25T07:30:56.896Z,15.76
2019-05-25T07:31:56.844Z,15.80
2019-05-25T07:32:56.868Z,16.08
2019-05-25T07:33:56.796Z,16.00
2019-05-25T07:34:56.782Z,16.31
2019-05-25T07:35:56.764Z,16.51
2019-05-25T07:36:56.716Z,16.56
2019-05-25T07:37:56.698Z,16.68
2019-05-25T07:38:56.677Z,16.81
2019-05-25T07:39:56.640Z,17.08
2019-05-25T07:40:56.647Z,17.36
2019-05-25T07:41:56.595Z,17.41
2019-05-25T07:42:56.572Z,17.30
2019-05-25T07:43:56.542Z,17.12
2019-05-25T07:44:56.521Z,17.09
2019-05-25T07:45:56.520Z,17.04
2019-05-25T07:46:56.475Z,17.04
2019-05-25T07:47:56.454Z,16.86
2019-05-25T07:48:56.429Z,16.75
2019-05-25T07:49:56.411Z,16.84
2019-05-25T07:50:56.397Z,16.68
2019-05-25T07:51:56.352Z,16.72
2019-05-25T07:52:56.330Z,16.79
2019-05-25T07:53:56.300Z,16.93
2019-05-25T07:54:56.283Z,17.15
2019-05-25T07:55:56.278Z,17.15
2019-05-25T07:56:56.237Z,17.08
2019-05-25T07:57:56.207Z,17.34
2019-05-25T07:58:56.184Z,17.27
2019-05-25T07:59:56.167Z,17.31
2019-05-25T08:00:56.160Z,17.24
2019-05-25T08:01:56.112Z,17.27
2019-05-25T08:02:56.088Z,17.26
2019-05-25T08:03:56.065Z,17.06
2019-05-25T08:04:56.044Z,17.02
2019-05-25T08:05:56.042Z,17.11
2019-05-25T08:06:56.010Z,17.12
2019-05-25T08:07:55.972Z,17.20
2019-05-25T08:08:55.945Z,17.30
2019-05-25T08:09:56.029Z,16.89
2019-05-25T08:10:55.926Z,16.81
2019-05-25T08:11:55.877Z,16.78
2019-05-25T08:12:55.853Z,16.74
2019-05-25T08:13:55.831Z,16.78
2019-05-25T08:14:55.802Z,16.64
2019-05-25T08:15:55.801Z,16.51
2019-05-25T08:16:55.757Z,16.31
2019-05-25T08:17:55.738Z,16.39
2019-05-25T08:18:55.712Z,16.38
2019-05-25T08:19:55.798Z,16.41
2019-05-25T08:20:55.680Z,16.39
2019-05-25T08:21:55.633Z,16.47
2019-05-25T08:22:55.612Z,16.47
2019-05-25T08:23:55.585Z,16.49
2019-05-25T08:24:55.565Z,16.74
2019-05-25T08:25:55.560Z,16.87
2019-05-25T08:26:55.521Z,16.83
2019-05-25T08:27:55.496Z,16.71
2019-05-25T08:28:55.468Z,16.68
2019-05-25T08:29:56.245Z,16.65
2019-05-25T08:30:55.454Z,16.56
2019-05-25T08:31:55.395Z,16.56
2019-05-25T08:32:55.377Z,16.64
2019-05-25T08:33:55.342Z,16.47
2019-05-25T08:34:55.324Z,16.46
2019-05-25T08:35:55.291Z,16.33
2019-05-25T08:36:55.307Z,16.20
2019-05-25T08:37:55.248Z,16.10
2019-05-25T08:38:55.220Z,15.97
2019-05-25T08:39:55.319Z,15.84
2019-05-25T08:40:55.177Z,15.83
2019-05-25T08:41:55.171Z,15.97
2019-05-25T08:42:55.123Z,16.10
2019-05-25T08:43:55.096Z,16.42
2019-05-25T08:44:55.715Z,16.54
2019-05-25T08:45:55.060Z,16.78
2019-05-25T08:46:55.600Z,16.91
2019-05-25T08:47:57.222Z,17.14
2019-05-25T08:48:54.971Z,17.04
2019-05-25T08:49:54.969Z,16.68
2019-05-25T08:50:54.923Z,16.50
2019-05-25T08:51:55.153Z,16.49
2019-05-25T08:52:54.871Z,16.28
2019-05-25T08:53:54.848Z,16.21
2019-05-25T08:54:56.681Z,15.95
2019-05-25T08:55:54.807Z,15.77
2019-05-25T08:56:54.824Z,15.72
2019-05-25T08:57:54.773Z,15.84
2019-05-25T08:58:55.556Z,15.82
2019-05-25T08:59:54.706Z,15.91
2019-05-25T09:00:54.680Z,16.10
2019-05-25T09:01:54.678Z,16.20
2019-05-25T09:02:54.631Z,16.26
2019-05-25T09:03:54.599Z,16.41
2019-05-25T09:04:54.573Z,16.47
2019-05-25T09:05:54.552Z,16.51
2019-05-25T09:06:54.553Z,16.57
2019-05-25T09:07:54.497Z,16.46
2019-05-25T09:08:54.474Z,16.43
2019-05-25T09:09:54.468Z,16.47
2019-05-25T09:10:54.427Z,16.46
2019-05-25T09:11:54.427Z,16.39
2019-05-25T09:12:54.378Z,16.28
2019-05-25T09:13:54.354Z,16.32
2019-05-25T09:14:54.327Z,16.43
2019-05-25T09:15:54.306Z,16.35
2019-05-25T09:16:54.302Z,16.50
2019-05-25T09:17:54.602Z,16.68
2019-05-25T09:18:54.233Z,16.71
2019-05-25T09:19:54.203Z,16.81
2019-05-25T09:20:54.207Z,16.86
2019-05-25T09:22:02.687Z,16.91
2019-05-25T09:22:54.144Z,16.81
2019-05-25T09:23:54.109Z,16.68
2019-05-25T09:24:54.082Z,16.60
2019-05-25T09:25:54.056Z,16.58
2019-05-25T09:26:54.061Z,16.56
2019-05-25T09:27:54.004Z,16.66
2019-05-25T09:29:03.891Z,16.74
2019-05-25T09:29:53.956Z,16.83
2019-05-25T09:30:53.957Z,16.84
2019-05-25T09:31:53.925Z,16.97
2019-05-25T09:32:53.883Z,17.09
2019-05-25T09:33:53.873Z,17.23
2019-05-25T09:34:53.854Z,17.33
2019-05-25T09:35:53.813Z,17.29
2019-05-25T09:36:53.819Z,17.33
2019-05-25T09:37:53.770Z,17.33
2019-05-25T09:38:53.741Z,17.30
2019-05-25T09:39:53.712Z,17.31
2019-05-25T09:40:53.687Z,17.41
2019-05-25T09:41:53.689Z,17.39
2019-05-25T09:42:53.673Z,17.59
2019-05-25T09:43:53.624Z,17.78
2019-05-25T09:44:53.602Z,17.98
2019-05-25T09:45:53.574Z,18.23
2019-05-25T09:46:53.567Z,18.47
2019-05-25T09:47:53.523Z,18.60
2019-05-25T09:48:53.498Z,18.74
2019-05-25T09:49:53.497Z,18.90
2019-05-25T09:50:53.476Z,18.95
2019-05-25T09:51:53.736Z,19.19
2019-05-25T09:52:53.418Z,19.44
2019-05-25T09:53:53.383Z,19.58
2019-05-25T09:54:55.672Z,19.30
2019-05-25T09:55:53.333Z,19.11
2019-05-25T09:56:53.314Z,18.89
2019-05-25T09:57:53.325Z,19.07
2019-05-25T09:58:53.282Z,19.29
2019-05-25T09:59:53.267Z,19.52
2019-05-25T10:00:53.232Z,19.71
2019-05-25T10:01:53.211Z,19.77
2019-05-25T10:02:53.212Z,19.79
2019-05-25T10:03:56.909Z,19.79
2019-05-25T10:04:53.140Z,19.81
2019-05-25T10:05:53.116Z,19.67
2019-05-25T10:06:53.094Z,19.76
2019-05-25T10:07:53.101Z,19.58
2019-05-25T10:08:53.055Z,19.22
2019-05-25T10:09:53.027Z,19.12
2019-05-25T10:10:53.029Z,18.83
2019-05-25T10:11:52.987Z,18.77
2019-05-25T10:12:52.988Z,18.81
2019-05-25T10:13:52.946Z,18.78
2019-05-25T10:14:52.924Z,18.89
2019-05-25T10:15:52.901Z,18.99
2019-05-25T10:16:52.888Z,19.19
2019-05-25T10:17:53.370Z,19.36
2019-05-25T10:18:52.854Z,19.55
2019-05-25T10:19:52.817Z,19.56
2019-05-25T10:20:52.797Z,19.55
2019-05-25T10:21:52.774Z,19.15
2019-05-25T10:22:52.780Z,18.99
2019-05-25T10:23:52.725Z,18.98
2019-05-25T10:24:52.716Z,18.96
2019-05-25T10:25:52.689Z,18.88
2019-05-25T10:26:52.665Z,18.68
2019-05-25T10:27:52.670Z,18.73
2019-05-25T10:28:52.618Z,18.62
2019-05-25T10:29:52.598Z,18.35
2019-05-25T10:30:52.575Z,18.15
2019-05-25T10:31:52.554Z,18.04
2019-05-25T10:32:52.570Z,17.97
2019-05-25T10:33:52.508Z,17.94
2019-05-25T10:34:52.488Z,17.94
2019-05-25T10:35:52.474Z,18.03
2019-05-25T10:36:52.458Z,18.16
2019-05-25T10:37:52.456Z,18.45
2019-05-25T10:38:52.402Z,18.56
2019-05-25T10:39:52.378Z,18.53
2019-05-25T10:40:52.359Z,18.53
2019-05-25T10:41:52.330Z,18.56
2019-05-25T10:42:52.338Z,18.49
2019-05-25T10:43:52.292Z,18.37
2019-05-25T10:44:52.269Z,18.31
2019-05-25T10:45:52.245Z,18.41
2019-05-25T10:46:52.241Z,18.44
2019-05-25T10:47:52.216Z,18.70
2019-05-25T10:48:52.170Z,18.78
2019-05-25T10:49:52.154Z,18.77
2019-05-25T10:50:52.155Z,18.56
2019-05-25T10:51:52.109Z,18.66
2019-05-25T10:52:52.104Z,18.60
2019-05-25T10:53:52.063Z,18.86
2019-05-25T10:54:52.038Z,18.99
2019-05-25T10:55:52.015Z,18.86
2019-05-25T10:56:52.146Z,18.84
2019-05-25T10:57:52.001Z,18.95
2019-05-25T10:58:51.954Z,18.68
2019-05-25T10:59:53.466Z,18.45
2019-05-25T11:00:51.904Z,18.28
2019-05-25T11:01:51.882Z,18.05
2019-05-25T11:02:51.885Z,17.98
2019-05-25T11:03:51.836Z,18.04
2019-05-25T11:04:51.819Z,18.18
2019-05-25T11:05:51.790Z,18.22
2019-05-25T11:06:51.789Z,18.08
2019-05-25T11:07:51.750Z,18.05
2019-05-25T11:08:51.756Z,18.03
2019-05-25T11:09:51.707Z,18.03
2019-05-25T11:10:51.684Z,17.98
2019-05-25T11:11:51.655Z,18.01
2019-05-25T11:12:51.646Z,18.04
2019-05-25T11:13:51.635Z,17.98
2019-05-25T11:14:51.593Z,17.87
2019-05-25T11:15:51.571Z,17.98
2019-05-25T11:16:51.715Z,18.03
2019-05-25T11:17:51.536Z,18.11
2019-05-25T11:18:51.525Z,18.19
2019-05-25T11:19:51.473Z,18.49
2019-05-25T11:20:51.451Z,18.60
2019-05-25T11:21:51.427Z,18.93
2019-05-25T11:22:51.407Z,18.98
2019-05-25T11:23:51.401Z,19.18
2019-05-25T11:24:51.361Z,19.45
2019-05-25T11:25:51.333Z,19.76
2019-05-25T11:26:51.312Z,19.73
2019-05-25T11:27:51.293Z,19.66
2019-05-25T11:28:51.291Z,19.67
2019-05-25T11:29:51.248Z,19.84
2019-05-25T11:30:51.227Z,19.85
2019-05-25T11:31:57.607Z,19.85
2019-05-25T11:32:51.179Z,20.02
2019-05-25T11:33:51.182Z,20.28
2019-05-25T11:34:51.141Z,20.28
2019-05-25T11:35:51.118Z,20.28
2019-05-25T11:36:51.091Z,20.13
2019-05-25T11:37:51.075Z,20.14
2019-05-25T11:38:51.072Z,20.26
2019-05-25T11:39:51.035Z,20.22
2019-05-25T11:40:51.007Z,20.43
2019-05-25T11:41:50.984Z,20.59
2019-05-25T11:42:50.980Z,20.47
2019-05-25T11:43:50.978Z,20.48
2019-05-25T11:44:50.930Z,20.66
2019-05-25T11:45:50.911Z,20.47
2019-05-25T11:46:51.763Z,20.39
2019-05-25T11:47:50.860Z,20.52
2019-05-25T11:48:50.916Z,20.32
2019-05-25T11:49:50.822Z,20.03
2019-05-25T11:50:50.802Z,20.00
2019-05-25T11:51:50.809Z,19.95
2019-05-25T11:52:50.790Z,19.82
2019-05-25T11:53:50.758Z,19.79
2019-05-25T11:54:50.718Z,19.85
2019-05-25T11:55:50.696Z,20.09
2019-05-25T11:56:50.672Z,19.94
2019-05-25T11:57:50.680Z,20.09
2019-05-25T11:58:50.654Z,20.10
2019-05-25T11:59:50.620Z,20.09
2019-05-25T12:00:51.756Z,19.95
2019-05-25T12:01:50.571Z,19.76
2019-05-25T12:02:50.555Z,19.88
2019-05-25T12:03:50.559Z,19.84
2019-05-25T12:04:50.514Z,19.89
2019-05-25T12:05:50.495Z,19.76
2019-05-25T12:06:50.464Z,19.70
2019-05-25T12:07:50.443Z,19.45
2019-05-25T12:08:50.493Z,19.37
2019-05-25T12:09:50.426Z,19.49
2019-05-25T12:10:59.363Z,19.44
2019-05-25T12:11:50.370Z,19.41
2019-05-25T12:12:50.341Z,19.39
2019-05-25T12:13:50.353Z,19.49
2019-05-25T12:14:50.294Z,19.39
2019-05-25T12:15:50.286Z,19.33
2019-05-25T12:16:50.268Z,19.12
2019-05-25T12:17:50.235Z,18.92
2019-05-25T12:18:50.241Z,19.19
2019-05-25T12:19:50.188Z,19.29
2019-05-25T12:20:50.173Z,19.30
2019-05-25T12:21:50.146Z,19.56
2019-05-25T12:22:50.319Z,19.84
2019-05-25T12:23:50.114Z,19.74
2019-05-25T12:24:50.657Z,19.76
2019-05-25T12:25:50.063Z,19.79
2019-05-25T12:26:50.048Z,19.86
2019-05-25T12:27:50.029Z,19.91
2019-05-25T12:28:50.890Z,19.74
2019-05-25T12:29:49.997Z,19.71
2019-05-25T12:30:49.985Z,19.77
2019-05-25T12:31:49.929Z,19.73
2019-05-25T12:32:49.915Z,19.85
2019-05-25T12:33:49.897Z,19.95
2019-05-25T12:34:49.907Z,20.03
2019-05-25T12:35:49.868Z,19.77
2019-05-25T12:36:49.822Z,19.67
2019-05-25T12:37:49.802Z,19.70
2019-05-25T12:38:49.790Z,19.79
2019-05-25T12:39:49.788Z,19.89
2019-05-25T12:40:53.692Z,19.74
2019-05-25T12:41:49.715Z,19.77
2019-05-25T12:42:49.757Z,19.58
2019-05-25T12:43:49.806Z,19.51
2019-05-25T12:44:49.779Z,19.54
2019-05-25T12:45:49.636Z,19.74
2019-05-25T12:46:49.611Z,19.89
2019-05-25T12:47:50.823Z,20.10
2019-05-25T12:48:52.317Z,19.76
2019-05-25T12:49:51.407Z,19.73
2019-05-25T12:50:49.525Z,19.55
2019-05-25T12:51:49.616Z,19.59